Time;durP1;ratioP1;P1;durP2;ratioP2;P2;SDS_P1;SDS_P2;PMS_P1;PMS_P2;Temp;Humidity;BMP_temperature;BMP_pressure;BME280_temperature;BME280_humidity;BME280_pressure;Samples;Min_cycle;Max_cycle;Signal;HPM_P1;HPM_P2
2022/07/07 00:00:44;;;;;;;9.10;2.10;;;13.60;99.90;;;;;;4990870;28;20193;-75
2022/07/07 00:03:10;;;;;;;2.33;1.40;;;13.60;99.90;;;;;;5008629;28;20179;-75
2022/07/07 00:05:38;;;;;;;2.83;1.53;;;13.70;99.90;;;;;;4974531;28;20503;-76
2022/07/07 00:08:04;;;;;;;2.90;1.83;;;13.70;99.90;;;;;;5008538;28;20205;-75
2022/07/07 00:10:30;;;;;;;2.07;1.57;;;13.70;99.90;;;;;;5009232;28;20777;-75
2022/07/07 00:12:55;;;;;;;5.07;1.70;;;13.70;99.90;;;;;;5008555;28;20200;-75
2022/07/07 00:15:21;;;;;;;3.07;1.77;;;13.70;99.90;;;;;;4974330;28;20283;-75
2022/07/07 00:17:47;;;;;;;5.47;1.97;;;13.70;99.90;;;;;;5008433;28;20188;-75
2022/07/07 00:20:13;;;;;;;2.23;2.03;;;13.70;99.90;;;;;;5008663;28;20235;-75
2022/07/07 00:22:38;;;;;;;6.17;2.23;;;13.80;99.90;;;;;;4990846;28;20570;-75
2022/07/07 00:25:06;;;;;;;4.73;2.30;;;13.90;99.90;;;;;;4993578;28;20693;-75
2022/07/07 00:27:32;;;;;;;5.77;1.90;;;14.00;99.90;;;;;;5012361;28;20185;-74
2022/07/07 00:29:57;;;;;;;2.77;1.40;;;14.00;99.90;;;;;;4994622;28;20452;-75
2022/07/07 00:32:23;;;;;;;5.30;2.00;;;14.10;99.90;;;;;;5012398;28;20239;-74
2022/07/07 00:34:49;;;;;;;3.60;1.80;;;14.00;99.90;;;;;;5012521;28;20553;-74
2022/07/07 00:37:14;;;;;;;3.67;1.83;;;14.00;99.90;;;;;;4995630;28;20193;-75
2022/07/07 00:39:40;;;;;;;8.87;2.00;;;13.90;99.90;;;;;;5012162;28;20583;-74
2022/07/07 00:42:06;;;;;;;4.20;2.00;;;13.70;99.90;;;;;;5012042;28;20709;-75
2022/07/07 00:44:34;;;;;;;5.73;2.20;;;13.70;99.90;;;;;;5012087;28;20766;-76
2022/07/07 00:47:00;;;;;;;3.90;2.13;;;13.70;99.90;;;;;;4993905;28;20260;-75
2022/07/07 00:49:26;;;;;;;6.53;1.93;;;13.60;99.90;;;;;;4977956;28;20424;-76
2022/07/07 00:51:51;;;;;;;2.63;2.10;;;13.50;99.90;;;;;;5011861;28;20745;-76
2022/07/07 00:54:17;;;;;;;2.80;1.80;;;13.40;99.90;;;;;;5011912;28;20682;-75
2022/07/07 00:56:43;;;;;;;2.00;1.80;;;13.30;99.90;;;;;;5011902;28;20204;-75
2022/07/07 00:59:09;;;;;;;2.47;1.73;;;13.40;99.90;;;;;;4994100;28;20432;-77
2022/07/07 01:01:39;;;;;;;4.03;1.83;;;13.50;99.90;;;;;;5012381;28;20220;-75
2022/07/07 01:04:11;;;;;;;2.33;2.00;;;13.50;99.90;;;;;;4994277;28;20196;-75
2022/07/07 01:06:38;;;;;;;3.43;1.80;;;13.60;99.90;;;;;;5011673;28;20450;-74
2022/07/07 01:09:04;;;;;;;7.63;2.47;;;13.60;99.90;;;;;;5011827;28;20956;-75
2022/07/07 01:11:45;;;;;;;2.13;1.53;;;13.60;99.90;;;;;;5011915;28;20527;-75
2022/07/07 01:14:10;;;;;;;4.10;2.03;;;13.60;99.90;;;;;;5012055;28;20833;-75
2022/07/07 01:16:36;;;;;;;4.57;1.80;;;13.60;99.90;;;;;;4994233;28;20541;-76
2022/07/07 01:19:02;;;;;;;2.43;1.70;;;13.60;99.90;;;;;;4994270;28;20260;-75
2022/07/07 01:21:33;;;;;;;9.43;2.13;;;13.60;99.90;;;;;;4994212;28;20217;-76
2022/07/07 01:23:59;;;;;;;7.13;1.80;;;13.50;99.90;;;;;;5012010;28;20180;-75
2022/07/07 01:26:26;;;;;;;2.87;1.60;;;13.50;99.90;;;;;;4994395;28;20471;-75
2022/07/07 01:28:52;;;;;;;1.87;1.43;;;13.40;99.90;;;;;;5011883;28;20189;-75
2022/07/07 01:31:18;;;;;;;4.17;2.10;;;13.50;99.90;;;;;;4993889;28;20431;-74
2022/07/07 01:33:43;;;;;;;6.60;1.97;;;13.50;99.90;;;;;;4993425;28;20432;-74
2022/07/07 01:36:12;;;;;;;3.87;1.90;;;13.60;99.90;;;;;;4993447;28;20239;-75
2022/07/07 01:38:38;;;;;;;2.93;2.00;;;13.60;99.90;;;;;;5010944;28;20203;-75
2022/07/07 01:41:04;;;;;;;3.57;1.80;;;13.60;99.90;;;;;;5010438;28;20456;-74
2022/07/07 01:43:29;;;;;;;10.80;1.90;;;13.60;99.90;;;;;;4992834;28;20185;-74
2022/07/07 01:45:55;;;;;;;3.93;1.90;;;13.70;99.90;;;;;;4992338;28;20573;-75
2022/07/07 01:48:22;;;;;;;5.10;2.10;;;14.00;99.90;;;;;;4992307;28;20181;-74
2022/07/07 01:50:48;;;;;;;3.83;1.47;;;14.00;99.90;;;;;;5010070;28;20182;-74
2022/07/07 01:53:13;;;;;;;2.17;1.57;;;14.10;99.90;;;;;;4992366;28;20478;-74
2022/07/07 01:55:39;;;;;;;6.00;1.70;;;14.00;99.90;;;;;;4991902;28;20209;-74
2022/07/07 01:58:04;;;;;;;7.13;1.73;;;13.90;99.90;;;;;;5009780;28;20188;-74
2022/07/07 02:00:30;;;;;;;7.97;2.20;;;13.80;99.90;;;;;;5010232;28;20182;-74
2022/07/07 02:02:56;;;;;;;3.30;2.03;;;13.90;99.90;;;;;;4991710;28;20740;-74
2022/07/07 02:05:21;;;;;;;3.73;1.57;;;14.00;99.90;;;;;;5009669;28;20211;-75
2022/07/07 02:07:48;;;;;;;3.40;1.70;;;14.10;99.90;;;;;;4991845;28;20208;-74
2022/07/07 02:11:12;;;;;;;5.20;1.20;;;14.20;99.90;;;;;;4991989;28;20197;-74
2022/07/07 02:12:59;;;;;;;1.90;1.70;;;14.30;99.90;;;;;;5009222;28;21126;-74
2022/07/07 02:15:25;;;;;;;5.50;1.77;;;14.40;99.90;;;;;;5009292;28;20437;-74
2022/07/07 02:17:51;;;;;;;5.90;1.73;;;14.40;99.90;;;;;;5009429;28;20447;-75
2022/07/07 02:20:16;;;;;;;2.60;2.00;;;14.40;99.90;;;;;;5009426;28;20467;-74
2022/07/07 02:22:42;;;;;;;4.70;1.77;;;14.50;99.90;;;;;;4991873;28;20228;-76
2022/07/07 02:25:08;;;;;;;6.30;2.10;;;14.50;99.90;;;;;;4991828;28;20692;-75
2022/07/07 02:27:33;;;;;;;3.87;1.47;;;14.60;99.90;;;;;;5010352;28;20655;-74
2022/07/07 02:29:59;;;;;;;6.23;1.43;;;14.60;99.90;;;;;;4992065;28;20211;-74
2022/07/07 02:32:25;;;;;;;8.40;1.80;;;14.80;99.90;;;;;;4993642;28;20259;-75
2022/07/07 02:34:50;;;;;;;4.93;2.10;;;14.70;99.90;;;;;;5015947;28;20212;-75
2022/07/07 02:37:16;;;;;;;1.93;1.70;;;14.80;99.90;;;;;;4996114;28;20248;-76
2022/07/07 02:39:41;;;;;;;1.80;1.58;;;14.80;99.90;;;;;;4974149;28;1077439;-77
2022/07/07 02:42:07;;;;;;;3.33;2.53;;;14.80;99.90;;;;;;4994677;28;20205;-75
2022/07/07 02:44:33;;;;;;;8.83;1.93;;;14.80;99.90;;;;;;4994838;28;20712;-75
2022/07/07 02:46:58;;;;;;;6.50;1.90;;;14.70;99.90;;;;;;4993720;28;20192;-75
2022/07/07 02:49:24;;;;;;;9.73;1.60;;;14.70;99.90;;;;;;4976347;28;20186;-74
2022/07/07 02:51:49;;;;;;;3.93;2.00;;;14.70;99.90;;;;;;5009803;28;20185;-73
2022/07/07 02:54:17;;;;;;;4.70;1.60;;;14.70;99.90;;;;;;5009750;28;20621;-74
2022/07/07 02:56:42;;;;;;;4.27;1.70;;;14.80;99.90;;;;;;5009622;28;20292;-75
2022/07/07 02:59:08;;;;;;;2.60;1.83;;;14.80;99.90;;;;;;4991953;28;21054;-74
2022/07/07 03:01:33;;;;;;;2.80;1.37;;;14.80;99.90;;;;;;5009659;28;20701;-74
2022/07/07 03:03:59;;;;;;;3.93;1.63;;;14.80;99.90;;;;;;4992103;28;20182;-73
2022/07/07 03:06:25;;;;;;;5.13;2.20;;;14.90;99.90;;;;;;4992000;28;20580;-73
2022/07/07 03:08:50;;;;;;;1.97;1.67;;;15.00;99.90;;;;;;5010008;28;20535;-77
2022/07/07 03:11:16;;;;;;;2.53;1.73;;;14.90;99.90;;;;;;5010159;28;20196;-73
2022/07/07 03:13:42;;;;;;;3.23;2.00;;;14.80;99.90;;;;;;4992501;28;20196;-74
2022/07/07 03:16:07;;;;;;;4.83;2.30;;;14.90;99.90;;;;;;4992383;28;20259;-73
2022/07/07 03:18:33;;;;;;;3.40;1.90;;;14.90;99.90;;;;;;4976027;28;20190;-74
2022/07/07 03:20:59;;;;;;;7.07;2.40;;;14.70;99.90;;;;;;4992246;28;20292;-75
2022/07/07 03:23:25;;;;;;;2.67;2.47;;;14.60;99.90;;;;;;5009926;28;20199;-74
2022/07/07 03:25:51;;;;;;;3.37;1.87;;;14.40;99.90;;;;;;5009791;28;20974;-74
2022/07/07 03:28:16;;;;;;;9.80;2.43;;;14.50;99.90;;;;;;5009824;28;20281;-73
2022/07/07 03:30:42;;;;;;;3.40;2.30;;;14.40;99.90;;;;;;5009699;28;20257;-74
2022/07/07 03:33:07;;;;;;;2.40;1.60;;;14.60;99.90;;;;;;5009527;28;20920;-74
2022/07/07 03:35:33;;;;;;;4.90;2.00;;;14.60;99.90;;;;;;4990929;28;20206;-74
2022/07/07 03:37:59;;;;;;;6.77;2.60;;;14.60;99.90;;;;;;5009017;28;20252;-74
2022/07/07 03:40:24;;;;;;;4.70;2.17;;;14.40;99.90;;;;;;5008729;28;20277;-73
2022/07/07 03:42:50;;;;;;;3.70;1.87;;;14.40;99.90;;;;;;5008788;28;20651;-73
2022/07/07 03:45:16;;;;;;;2.70;2.20;;;14.40;99.90;;;;;;5008793;28;20204;-74
2022/07/07 03:47:42;;;;;;;3.63;1.63;;;14.50;99.90;;;;;;5008842;28;21212;-73
2022/07/07 03:50:08;;;;;;;6.87;2.00;;;14.50;99.90;;;;;;4991100;28;20182;-75
2022/07/07 03:52:33;;;;;;;6.97;2.03;;;14.60;99.90;;;;;;5008702;28;20186;-74
2022/07/07 03:54:59;;;;;;;7.30;2.10;;;14.70;99.90;;;;;;4991322;28;20448;-74
2022/07/07 03:57:25;;;;;;;3.93;1.80;;;14.80;99.90;;;;;;5008996;28;20192;-73
2022/07/07 03:59:50;;;;;;;2.50;1.40;;;14.90;99.90;;;;;;5012111;28;20607;-73
2022/07/07 04:02:16;;;;;;;4.97;1.97;;;15.00;99.90;;;;;;5013217;28;20217;-73
2022/07/07 04:04:42;;;;;;;8.17;1.70;;;15.10;99.90;;;;;;4995378;28;20185;-73
2022/07/07 04:07:07;;;;;;;2.23;1.30;;;15.20;99.90;;;;;;4995493;28;20181;-74
2022/07/07 04:09:33;;;;;;;5.20;1.70;;;15.40;99.90;;;;;;5012900;28;20408;-73
2022/07/07 04:11:58;;;;;;;4.63;1.60;;;15.40;99.90;;;;;;5012828;28;20198;-73
2022/07/07 04:14:24;;;;;;;3.30;1.43;;;15.40;99.90;;;;;;4995054;28;20186;-74
2022/07/07 04:16:49;;;;;;;3.23;1.27;;;15.40;99.90;;;;;;5012696;28;20239;-74
2022/07/07 04:19:15;;;;;;;5.70;2.47;;;15.40;99.90;;;;;;4994911;28;20220;-73
2022/07/07 04:21:41;;;;;;;3.30;1.40;;;15.40;99.90;;;;;;5012245;28;20217;-73
2022/07/07 04:24:07;;;;;;;2.47;1.40;;;15.40;99.90;;;;;;4994525;28;20273;-73
2022/07/07 04:26:33;;;;;;;3.77;1.60;;;15.50;99.90;;;;;;4994151;28;20252;-74
2022/07/07 04:28:58;;;;;;;12.23;3.70;;;15.60;99.90;;;;;;5011726;28;20460;-74
2022/07/07 04:31:24;;;;;;;3.20;1.30;;;15.70;99.90;;;;;;5011391;28;20186;-74
2022/07/07 04:33:50;;;;;;;6.63;1.83;;;15.80;99.90;;;;;;4994012;28;20214;-74
2022/07/07 04:36:15;;;;;;;7.47;1.60;;;15.80;99.90;;;;;;4993669;28;20780;-74
2022/07/07 04:38:41;;;;;;;4.17;2.00;;;15.90;99.90;;;;;;5011917;28;20199;-73
2022/07/07 04:41:06;;;;;;;6.93;2.03;;;15.90;99.90;;;;;;5010743;28;20320;-74
2022/07/07 04:43:32;;;;;;;5.07;1.80;;;15.90;99.90;;;;;;5010635;28;20187;-74
2022/07/07 04:45:58;;;;;;;6.40;1.50;;;15.90;99.90;;;;;;4992542;28;20206;-74
2022/07/07 04:48:23;;;;;;;6.30;1.67;;;15.90;99.90;;;;;;5010655;28;20181;-74
2022/07/07 04:50:49;;;;;;;3.33;1.40;;;15.90;99.90;;;;;;4992701;28;20265;-74
2022/07/07 04:53:15;;;;;;;4.67;1.33;;;15.90;99.90;;;;;;4993092;28;20174;-74
2022/07/07 04:55:40;;;;;;;7.67;2.00;;;15.90;99.90;;;;;;5010681;28;20207;-74
2022/07/07 04:58:06;;;;;;;2.63;1.67;;;16.00;99.90;;;;;;5010823;28;20270;-74
2022/07/07 05:00:31;;;;;;;7.33;2.00;;;15.90;99.90;;;;;;5010932;28;20192;-74
2022/07/07 05:02:57;;;;;;;5.17;2.20;;;16.00;99.90;;;;;;5011080;28;20292;-73
2022/07/07 05:05:23;;;;;;;4.40;2.07;;;16.00;99.90;;;;;;5010642;28;20285;-74
2022/07/07 05:07:48;;;;;;;4.10;1.80;;;15.90;99.90;;;;;;4992914;28;20194;-74
2022/07/07 05:10:14;;;;;;;8.43;2.03;;;16.00;99.90;;;;;;4992355;28;20191;-74
2022/07/07 05:12:40;;;;;;;4.37;2.13;;;16.10;99.90;;;;;;5010593;28;20265;-73
2022/07/07 05:15:06;;;;;;;5.90;2.50;;;16.10;99.90;;;;;;5010739;28;20201;-74
2022/07/07 05:17:31;;;;;;;5.93;2.10;;;16.00;99.90;;;;;;5010544;28;20671;-74
2022/07/07 05:19:57;;;;;;;4.17;1.50;;;16.10;99.90;;;;;;4976508;28;20440;-74
2022/07/07 05:22:23;;;;;;;2.30;1.10;;;16.10;99.90;;;;;;4976639;28;20230;-74
2022/07/07 05:24:49;;;;;;;4.33;1.30;;;16.20;99.90;;;;;;4992793;28;20426;-74
2022/07/07 05:27:14;;;;;;;2.20;1.20;;;16.20;99.90;;;;;;5010577;28;20179;-74
2022/07/07 05:29:40;;;;;;;2.57;1.07;;;16.20;99.90;;;;;;4992831;28;20179;-74
2022/07/07 05:32:06;;;;;;;3.63;1.33;;;16.20;99.90;;;;;;4992776;28;20209;-74
2022/07/07 05:34:31;;;;;;;5.23;1.30;;;16.30;99.90;;;;;;5010391;28;20187;-74
2022/07/07 05:36:57;;;;;;;2.00;1.50;;;16.30;99.90;;;;;;4992392;28;20453;-74
2022/07/07 05:39:24;;;;;;;8.00;1.40;;;16.40;99.90;;;;;;5010537;28;20202;-74
2022/07/07 05:41:50;;;;;;;7.60;1.30;;;16.30;99.90;;;;;;4976821;28;20346;-74
2022/07/07 05:44:15;;;;;;;2.73;1.43;;;16.30;99.90;;;;;;5011231;28;20484;-74
2022/07/07 05:46:41;;;;;;;5.70;1.50;;;16.40;99.90;;;;;;5010889;28;20448;-74
2022/07/07 05:49:07;;;;;;;4.47;1.67;;;16.40;99.90;;;;;;5011039;28;20187;-74
2022/07/07 05:51:32;;;;;;;4.27;1.70;;;16.50;99.90;;;;;;4993405;28;20194;-74
2022/07/07 05:53:58;;;;;;;2.70;1.57;;;16.50;99.90;;;;;;5010184;28;20911;-74
2022/07/07 05:56:23;;;;;;;7.90;1.50;;;16.60;99.90;;;;;;5010031;28;20301;-74
2022/07/07 05:58:49;;;;;;;3.20;1.27;;;16.60;99.90;;;;;;5009655;28;20274;-74
2022/07/07 06:01:15;;;;;;;3.00;1.40;;;16.70;99.90;;;;;;4992142;28;20215;-74
2022/07/07 06:03:40;;;;;;;3.47;1.17;;;16.70;99.90;;;;;;5009918;28;20224;-73
2022/07/07 06:06:06;;;;;;;3.77;1.40;;;16.80;99.90;;;;;;4992246;28;20279;-74
2022/07/07 06:08:32;;;;;;;5.80;1.77;;;16.80;99.90;;;;;;5009645;28;20181;-74
2022/07/07 06:10:57;;;;;;;4.40;1.57;;;16.80;99.90;;;;;;5009580;28;20181;-74
2022/07/07 06:13:23;;;;;;;3.10;1.43;;;16.80;99.90;;;;;;5009484;28;20184;-74
2022/07/07 06:15:48;;;;;;;2.00;1.30;;;16.90;99.90;;;;;;4991355;28;20381;-73
2022/07/07 06:18:14;;;;;;;3.33;1.53;;;16.80;99.90;;;;;;5009163;28;20187;-74
2022/07/07 06:20:40;;;;;;;5.97;1.60;;;16.90;99.90;;;;;;4991140;28;20188;-74
2022/07/07 06:23:06;;;;;;;2.60;1.70;;;17.00;99.90;;;;;;5008443;28;21069;-74
2022/07/07 06:25:32;;;;;;;3.70;1.27;;;17.00;99.90;;;;;;5009204;28;20207;-74
2022/07/07 06:27:58;;;;;;;3.47;1.40;;;17.10;99.90;;;;;;5009272;28;20185;-74
2022/07/07 06:30:25;;;;;;;2.53;1.27;;;17.20;99.90;;;;;;4975239;28;20431;-74
2022/07/07 06:32:50;;;;;;;7.40;1.63;;;17.30;99.90;;;;;;5009255;28;20942;-74
2022/07/07 06:35:16;;;;;;;2.63;1.40;;;17.40;99.90;;;;;;4991390;28;20569;-76
2022/07/07 06:37:42;;;;;;;2.83;1.90;;;17.40;99.90;;;;;;5009350;28;20187;-74
2022/07/07 06:40:08;;;;;;;3.40;1.47;;;17.40;99.90;;;;;;4991365;28;20203;-74
2022/07/07 06:42:34;;;;;;;2.43;1.40;;;17.50;99.90;;;;;;5009944;28;20220;-74
2022/07/07 06:45:00;;;;;;;4.43;1.40;;;17.50;99.90;;;;;;5008963;28;20454;-74
2022/07/07 06:47:25;;;;;;;2.27;1.30;;;17.50;99.90;;;;;;5008756;28;20263;-74
2022/07/07 06:49:51;;;;;;;3.83;1.33;;;17.60;99.90;;;;;;5008773;28;20184;-74
2022/07/07 06:52:17;;;;;;;6.23;1.53;;;17.70;99.90;;;;;;5008678;28;20180;-74
2022/07/07 06:54:42;;;;;;;6.10;1.50;;;17.90;99.60;;;;;;4990540;28;20287;-73
2022/07/07 06:57:08;;;;;;;2.97;1.07;;;18.00;98.80;;;;;;5008539;28;20244;-73
2022/07/07 06:59:35;;;;;;;3.13;1.53;;;18.00;99.90;;;;;;5008431;28;20192;-74
2022/07/07 07:02:02;;;;;;;1.83;1.30;;;18.00;99.60;;;;;;5008252;28;20454;-73
2022/07/07 07:04:27;;;;;;;2.97;1.53;;;18.10;99.20;;;;;;5008467;28;20452;-74
2022/07/07 07:06:53;;;;;;;2.10;1.33;;;18.20;99.20;;;;;;5007648;28;20518;-74
2022/07/07 07:09:19;;;;;;;4.33;2.07;;;18.30;99.10;;;;;;5007775;28;20423;-74
2022/07/07 07:11:45;;;;;;;3.80;1.23;;;18.50;99.10;;;;;;4989793;28;20193;-74
2022/07/07 07:14:13;;;;;;;2.10;1.40;;;18.60;99.10;;;;;;4989995;28;20479;-74
2022/07/07 07:16:39;;;;;;;5.87;1.70;;;18.60;98.70;;;;;;5007581;28;20443;-74
2022/07/07 07:19:05;;;;;;;2.47;1.53;;;18.70;98.80;;;;;;4990295;28;20903;-74
2022/07/07 07:21:30;;;;;;;4.60;1.60;;;18.90;99.90;;;;;;5007527;28;20507;-73
2022/07/07 07:23:56;;;;;;;2.07;1.50;;;19.10;99.90;;;;;;5007464;28;20416;-74
2022/07/07 07:26:22;;;;;;;2.87;1.23;;;19.10;99.90;;;;;;5007553;28;20276;-74
2022/07/07 07:28:47;;;;;;;4.40;2.40;;;19.20;98.70;;;;;;5007934;28;20181;-74
2022/07/07 07:31:13;;;;;;;2.50;1.63;;;19.20;98.00;;;;;;5007415;28;20199;-74
2022/07/07 07:33:39;;;;;;;7.13;2.27;;;19.20;99.70;;;;;;5007636;28;20635;-74
2022/07/07 07:36:07;;;;;;;8.37;2.20;;;19.00;97.80;;;;;;5007250;28;20534;-74
2022/07/07 07:38:35;;;;;;;5.60;1.50;;;18.90;98.50;;;;;;5007182;28;20746;-74
2022/07/07 07:41:02;;;;;;;3.17;2.00;;;19.00;99.20;;;;;;5007346;28;20513;-74
2022/07/07 07:43:28;;;;;;;9.60;1.67;;;19.10;99.90;;;;;;5007452;28;20416;-74
2022/07/07 07:45:53;;;;;;;9.53;2.00;;;19.20;99.90;;;;;;5007224;28;20516;-74
2022/07/07 07:48:19;;;;;;;3.50;1.90;;;19.20;99.80;;;;;;4989557;28;20243;-74
2022/07/07 07:50:45;;;;;;;5.33;1.87;;;19.20;99.60;;;;;;4989139;28;20651;-74
2022/07/07 07:53:11;;;;;;;7.50;2.53;;;19.20;99.20;;;;;;5007250;28;20219;-74
2022/07/07 07:55:38;;;;;;;4.83;2.30;;;19.30;99.90;;;;;;5007305;28;20444;-74
2022/07/07 07:58:05;;;;;;;6.50;1.47;;;19.60;99.90;;;;;;5007062;28;20434;-74
2022/07/07 08:00:31;;;;;;;6.63;2.20;;;19.70;99.90;;;;;;5007183;28;20431;-74
2022/07/07 08:02:56;;;;;;;4.80;1.67;;;19.80;99.90;;;;;;5007617;28;20470;-74
2022/07/07 08:05:22;;;;;;;4.17;1.50;;;19.90;99.90;;;;;;5007114;28;20435;-73
2022/07/07 08:07:48;;;;;;;2.80;1.47;;;19.90;99.60;;;;;;5007372;28;20255;-74
2022/07/07 08:10:15;;;;;;;3.37;1.50;;;20.00;99.90;;;;;;5007148;28;20697;-74
2022/07/07 08:12:42;;;;;;;4.00;2.10;;;20.00;99.90;;;;;;5007116;28;20186;-74
2022/07/07 08:15:09;;;;;;;9.87;2.20;;;19.90;99.90;;;;;;5007306;28;20855;-73
2022/07/07 08:17:35;;;;;;;4.43;1.47;;;19.80;99.90;;;;;;4989335;28;20442;-74
2022/07/07 08:20:01;;;;;;;11.40;1.87;;;19.80;99.90;;;;;;4973018;28;20428;-74
2022/07/07 08:22:27;;;;;;;6.40;1.90;;;19.70;99.90;;;;;;5006738;28;20468;-76
2022/07/07 08:24:53;;;;;;;1.70;1.60;;;19.70;99.90;;;;;;4989228;28;20437;-76
2022/07/07 08:27:19;;;;;;;3.20;2.13;;;19.70;99.90;;;;;;5007226;28;20232;-74
2022/07/07 08:29:44;;;;;;;6.60;1.80;;;19.70;99.90;;;;;;4989454;28;20667;-74
2022/07/07 08:32:11;;;;;;;4.10;2.13;;;19.70;99.90;;;;;;5007325;28;20448;-74
2022/07/07 08:34:38;;;;;;;4.00;1.63;;;19.70;99.90;;;;;;5007304;28;20271;-74
2022/07/07 08:37:05;;;;;;;2.13;1.70;;;19.70;99.90;;;;;;4989346;28;20427;-74
2022/07/07 08:39:30;;;;;;;3.97;1.70;;;19.80;99.90;;;;;;5007183;28;20453;-74
2022/07/07 08:41:56;;;;;;;5.90;2.37;;;19.80;99.90;;;;;;5007953;28;20463;-74
2022/07/07 08:44:22;;;;;;;4.10;1.90;;;19.80;99.90;;;;;;5008732;28;20183;-76
2022/07/07 08:46:47;;;;;;;3.33;2.40;;;19.90;99.90;;;;;;4994277;28;20450;-76
2022/07/07 08:49:13;;;;;;;5.50;2.40;;;20.00;99.90;;;;;;5012500;28;20181;-76
2022/07/07 08:51:43;;;;;;;6.43;1.90;;;20.20;99.90;;;;;;5011594;28;20180;-76
2022/07/07 08:54:11;;;;;;;3.60;2.27;;;20.70;99.90;;;;;;5011341;28;20292;-76
2022/07/07 08:56:40;;;;;;;4.03;2.23;;;20.90;97.50;;;;;;5011397;28;20449;-76
2022/07/07 08:59:11;;;;;;;5.10;1.83;;;21.10;99.90;;;;;;4993007;28;21012;-76
2022/07/07 09:01:37;;;;;;;6.23;1.90;;;21.10;98.80;;;;;;5010699;28;20490;-74
2022/07/07 09:04:04;;;;;;;5.37;2.10;;;21.20;97.60;;;;;;4992979;28;20937;-74
2022/07/07 09:06:30;;;;;;;2.07;1.70;;;21.00;98.50;;;;;;5010370;28;20940;-74
2022/07/07 09:08:56;;;;;;;5.23;2.27;;;21.00;98.30;;;;;;5010169;28;20420;-74
2022/07/07 09:11:31;;;;;;;3.93;2.00;;;20.90;98.70;;;;;;4976416;28;20426;-74
2022/07/07 09:14:08;;;;;;;4.03;1.80;;;20.70;98.70;;;;;;4976647;28;20519;-75
2022/07/07 09:16:36;;;;;;;4.70;2.23;;;20.60;99.90;;;;;;4992571;28;20443;-74
2022/07/07 09:19:02;;;;;;;7.07;2.37;;;20.50;99.80;;;;;;5010780;28;20422;-75
2022/07/07 09:21:33;;;;;;;6.40;2.20;;;20.40;99.90;;;;;;5010365;28;20861;-74
2022/07/07 09:24:01;;;;;;;4.43;2.07;;;20.30;99.90;;;;;;5010526;28;20206;-74
2022/07/07 09:26:33;;;;;;;5.07;2.10;;;20.40;99.90;;;;;;5010398;28;20811;-74
2022/07/07 09:28:59;;;;;;;4.77;1.97;;;20.70;99.90;;;;;;5010232;28;20418;-74
2022/07/07 09:31:24;;;;;;;5.90;2.50;;;21.10;99.90;;;;;;5010075;28;20420;-75
2022/07/07 09:34:11;;;;;;;1.67;1.40;;;21.60;99.50;;;;;;4992522;28;20230;-74
2022/07/07 09:39:21;;;;;;;2.93;1.87;;;21.30;98.30;;;;;;5010139;28;20522;-74
2022/07/07 09:41:47;;;;;;;5.50;2.77;;;21.10;99.90;;;;;;4991705;28;21011;-75
2022/07/07 09:44:13;;;;;;;2.17;1.97;;;21.00;99.90;;;;;;5009548;28;20475;-74
2022/07/07 09:46:38;;;;;;;6.87;2.00;;;20.80;99.90;;;;;;4991893;28;20892;-74
2022/07/07 09:49:09;;;;;;;7.40;2.50;;;20.60;99.90;;;;;;4991922;28;20188;-74
2022/07/07 09:51:35;;;;;;;4.67;2.23;;;20.40;99.90;;;;;;5009920;28;20188;-74
2022/07/07 09:54:05;;;;;;;5.77;2.30;;;20.40;99.90;;;;;;5009798;28;20420;-75
2022/07/07 09:56:42;;;;;;;3.43;1.87;;;20.30;99.90;;;;;;5008964;28;20518;-75
2022/07/07 09:59:12;;;;;;;5.37;1.90;;;20.20;99.90;;;;;;5009334;28;20426;-74
2022/07/07 10:01:40;;;;;;;3.83;2.20;;;20.10;99.90;;;;;;4992247;28;20467;-74
2022/07/07 10:04:09;;;;;;;4.60;2.10;;;20.10;99.90;;;;;;5010010;28;20416;-74
2022/07/07 10:06:38;;;;;;;4.17;3.20;;;20.10;99.90;;;;;;5010266;28;20439;-75
2022/07/07 10:09:06;;;;;;;27.83;9.37;;;20.10;99.90;;;;;;5010009;28;20419;-74
2022/07/07 10:11:40;;;;;;;9.63;6.40;;;20.00;99.90;;;;;;4976084;28;20427;-74
2022/07/07 10:14:33;;;;;;;21.67;14.50;;;20.00;99.90;;;;;;5010216;28;20443;-75
2022/07/07 10:17:00;;;;;;;8.20;5.33;;;20.00;99.90;;;;;;5011325;28;20530;-74
2022/07/07 10:19:27;;;;;;;6.70;3.27;;;19.90;99.90;;;;;;5016214;28;20515;-74
2022/07/07 10:21:56;;;;;;;19.70;10.40;;;19.90;99.90;;;;;;4995256;28;21194;-74
2022/07/07 10:24:27;;;;;;;26.27;13.13;;;19.90;99.90;;;;;;4993089;28;20436;-75
2022/07/07 10:26:58;;;;;;;14.53;7.43;;;20.00;99.90;;;;;;5009637;28;20539;-74
2022/07/07 10:29:48;;;;;;;17.23;6.93;;;20.00;99.90;;;;;;4993051;28;20606;-75
2022/07/07 10:32:34;;;;;;;9.93;4.10;;;19.90;99.90;;;;;;5010217;28;20415;-75
2022/07/07 10:35:10;;;;;;;14.63;9.93;;;19.90;99.90;;;;;;5009226;28;20538;-75
2022/07/07 10:37:43;;;;;;;13.30;8.50;;;19.80;99.90;;;;;;5011127;28;20638;-75
2022/07/07 10:40:18;;;;;;;14.97;8.97;;;19.90;99.90;;;;;;4994919;28;21003;-74
2022/07/07 10:43:10;;;;;;;21.23;13.03;;;20.10;99.90;;;;;;4994714;28;20475;-74
2022/07/07 10:45:44;;;;;;;12.20;7.53;;;20.20;99.90;;;;;;5009692;28;20489;-74
2022/07/07 10:48:50;;;;;;;7.80;3.07;;;20.20;99.90;;;;;;4992343;28;20428;-75
2022/07/07 10:51:23;;;;;;;12.60;9.77;;;20.10;99.90;;;;;;4992128;28;20502;-75
2022/07/07 10:54:08;;;;;;;7.43;5.77;;;20.20;99.90;;;;;;4992412;28;20519;-75
2022/07/07 10:56:53;;;;;;;6.10;4.10;;;20.40;99.90;;;;;;5009771;28;20870;-75
2022/07/07 10:59:20;;;;;;;6.70;3.97;;;20.40;99.90;;;;;;5009508;28;20435;-75
2022/07/07 11:02:01;;;;;;;7.03;2.27;;;20.50;99.90;;;;;;4991813;28;20916;-75
2022/07/07 11:04:42;;;;;;;4.53;2.67;;;20.50;99.90;;;;;;5009703;28;20538;-75
2022/07/07 11:07:14;;;;;;;4.23;2.20;;;20.60;99.90;;;;;;5009327;28;20608;-75
2022/07/07 11:10:06;;;;;;;5.13;2.00;;;20.60;99.90;;;;;;4991752;28;20470;-75
2022/07/07 11:12:40;;;;;;;5.27;2.20;;;20.50;99.90;;;;;;4991844;28;20435;-75
2022/07/07 11:15:14;;;;;;;7.37;2.67;;;20.60;99.90;;;;;;5009470;28;20471;-75
2022/07/07 11:17:44;;;;;;;5.60;1.90;;;20.60;99.90;;;;;;5009421;28;20419;-75
2022/07/07 11:20:20;;;;;;;2.50;2.30;;;20.60;99.90;;;;;;5009523;28;20416;-75
2022/07/07 11:22:49;;;;;;;5.83;2.10;;;20.70;99.90;;;;;;5009186;28;20467;-75
2022/07/07 11:25:18;;;;;;;2.70;2.23;;;20.80;99.90;;;;;;4991454;28;20456;-75
2022/07/07 11:27:45;;;;;;;6.37;2.43;;;20.70;99.90;;;;;;5009440;28;20799;-75
2022/07/07 11:30:11;;;;;;;4.20;1.80;;;20.80;99.90;;;;;;4991962;28;20950;-75
2022/07/07 11:32:38;;;;;;;2.50;1.70;;;20.80;99.90;;;;;;4975914;28;20436;-75
2022/07/07 11:35:06;;;;;;;3.60;2.10;;;20.80;99.90;;;;;;4991762;28;20443;-75
2022/07/07 11:37:33;;;;;;;10.27;2.10;;;20.70;99.90;;;;;;5009325;28;20535;-75
2022/07/07 11:39:58;;;;;;;3.00;2.07;;;20.50;99.90;;;;;;5008827;28;20819;-74
2022/07/07 11:42:26;;;;;;;2.03;1.80;;;20.30;99.90;;;;;;5008908;28;20472;-75
2022/07/07 11:44:52;;;;;;;3.63;2.00;;;20.20;99.90;;;;;;5008997;28;20180;-75
2022/07/07 11:47:18;;;;;;;3.83;2.20;;;20.20;99.90;;;;;;5009252;28;20420;-75
2022/07/07 11:49:44;;;;;;;9.13;2.23;;;20.10;99.90;;;;;;4991629;28;20416;-75
2022/07/07 11:52:15;;;;;;;4.97;2.00;;;20.10;99.90;;;;;;5009262;28;20417;-75
2022/07/07 11:54:48;;;;;;;2.07;1.90;;;20.10;99.90;;;;;;4991186;28;20432;-75
2022/07/07 11:57:33;;;;;;;3.60;2.03;;;20.00;99.90;;;;;;4991287;28;20683;-75
2022/07/07 12:00:17;;;;;;;3.17;2.40;;;20.00;99.90;;;;;;5009001;28;20428;-75
2022/07/07 12:02:44;;;;;;;3.93;2.20;;;19.80;99.90;;;;;;5008875;28;20492;-75
2022/07/07 12:05:16;;;;;;;2.63;2.43;;;19.80;99.90;;;;;;5009242;28;20447;-75
2022/07/07 12:07:43;;;;;;;17.37;2.83;;;19.70;99.90;;;;;;4991634;28;20867;-75
2022/07/07 12:10:39;;;;;;;7.33;2.80;;;19.60;99.90;;;;;;5009194;28;20424;-74
2022/07/07 12:13:07;;;;;;;5.33;2.13;;;19.70;99.90;;;;;;4971617;28;20487;-75
2022/07/07 12:15:39;;;;;;;4.70;1.97;;;19.80;99.90;;;;;;5009038;28;20455;-74
2022/07/07 12:18:08;;;;;;;2.63;1.90;;;20.10;99.90;;;;;;5008893;28;20423;-75
2022/07/07 12:20:34;;;;;;;5.13;2.20;;;20.20;99.90;;;;;;5010929;28;20455;-75
2022/07/07 12:23:03;;;;;;;1.70;1.60;;;20.30;99.90;;;;;;4994826;28;20972;-75
2022/07/07 12:25:34;;;;;;;4.70;1.90;;;20.20;99.90;;;;;;5012588;28;20467;-75
2022/07/07 12:28:02;;;;;;;5.30;1.90;;;20.10;99.90;;;;;;5012741;28;20925;-75
2022/07/07 12:30:33;;;;;;;2.50;1.87;;;20.00;99.90;;;;;;5012753;28;20427;-75
2022/07/07 12:33:00;;;;;;;5.63;2.47;;;19.90;99.90;;;;;;5012623;28;20961;-74
2022/07/07 12:35:39;;;;;;;5.40;2.37;;;19.80;99.90;;;;;;5013122;28;20448;-75
2022/07/07 12:38:06;;;;;;;5.00;1.87;;;19.60;99.90;;;;;;4978728;28;20433;-75
2022/07/07 12:40:36;;;;;;;6.80;2.67;;;19.40;99.90;;;;;;4995029;28;20453;-75
2022/07/07 12:43:11;;;;;;;6.10;2.80;;;19.30;99.90;;;;;;5012342;28;20476;-75
2022/07/07 12:45:38;;;;;;;4.47;2.37;;;19.30;99.90;;;;;;5012627;28;20518;-74
2022/07/07 12:48:14;;;;;;;2.67;1.77;;;19.20;99.90;;;;;;4995077;28;20428;-74
2022/07/07 12:50:40;;;;;;;4.40;1.90;;;19.30;99.90;;;;;;4995117;28;20493;-75